createdAt,value
2017-12-17T00:00:39.958Z,96.90
2017-12-17T00:03:12.329Z,96.90
2017-12-17T00:14:32.282Z,96.70
2017-12-17T00:32:50.245Z,96.80
2017-12-17T00:35:27.855Z,96.70
2017-12-17T00:38:14.237Z,96.70
2017-12-17T00:40:46.316Z,96.50
2017-12-17T00:43:34.721Z,96.50
2017-12-17T00:46:10.068Z,96.40
2017-12-17T00:51:38.622Z,96.40
2017-12-17T00:54:10.344Z,96.30
2017-12-17T00:56:45.195Z,96.30
2017-12-17T01:17:01.310Z,96.40
2017-12-17T01:19:46.378Z,96.40
2017-12-17T01:25:00.459Z,96.30
2017-12-17T01:42:32.473Z,97.10
2017-12-17T01:45:20.236Z,97.00
2017-12-17T02:15:55.452Z,97.10
2017-12-17T02:54:34.108Z,98.00
2017-12-17T02:57:01.836Z,98.10
2017-12-17T03:02:22.164Z,97.90
2017-12-17T03:04:49.835Z,97.90
2017-12-17T03:07:18.645Z,98.00
2017-12-17T03:09:47.027Z,98.00
2017-12-17T03:12:29.691Z,98.00
2017-12-17T03:14:57.473Z,98.00
2017-12-17T03:17:27.094Z,98.00
2017-12-17T03:19:57.693Z,98.00
2017-12-17T03:22:25.303Z,97.90
2017-12-17T03:24:56.388Z,98.10
2017-12-17T03:30:59.237Z,98.10
2017-12-17T03:36:10.337Z,98.00
2017-12-17T03:38:41.197Z,97.90
2017-12-17T03:41:09.783Z,97.90
2017-12-17T03:43:43.015Z,98.00
2017-12-17T03:46:14.051Z,97.90
2017-12-17T03:48:50.794Z,98.00
2017-12-17T03:51:53.646Z,98.10
2017-12-17T03:54:22.633Z,98.00
2017-12-17T03:56:56.037Z,97.90
2017-12-17T03:59:29.696Z,97.90
2017-12-17T04:02:11.256Z,97.80
2017-12-17T04:07:45.937Z,97.50
2017-12-17T04:20:27.029Z,97.10
2017-12-17T04:31:55.641Z,96.70
2017-12-17T04:34:45.094Z,96.60
2017-12-17T04:37:27.935Z,96.50
2017-12-17T04:40:06.872Z,96.40
2017-12-17T04:42:39.463Z,96.50
2017-12-17T04:45:09.074Z,96.40
2017-12-17T04:47:51.475Z,96.20
2017-12-17T04:50:21.078Z,96.20
2017-12-17T04:52:52.957Z,96.30
2017-12-17T04:55:28.626Z,96.30
2017-12-17T04:58:00.681Z,96.10
2017-12-17T05:00:31.901Z,96.10
2017-12-17T05:02:59.752Z,96.00
2017-12-17T05:05:27.671Z,96.00
2017-12-17T05:07:56.371Z,96.10
2017-12-17T05:10:25.454Z,95.90
2017-12-17T05:12:53.382Z,95.90
2017-12-17T05:15:21.280Z,95.90
2017-12-17T05:17:48.924Z,95.70
2017-12-17T05:20:17.373Z,95.50
2017-12-17T05:22:46.015Z,95.10
2017-12-17T05:25:14.034Z,95.00
2017-12-17T05:27:43.158Z,95.00
2017-12-17T05:30:12.197Z,95.10
2017-12-17T05:32:39.914Z,94.90
2017-12-17T05:37:46.590Z,94.70
2017-12-17T05:40:19.378Z,94.60
2017-12-17T05:42:49.710Z,94.60
2017-12-17T05:45:17.683Z,94.50
2017-12-17T05:47:45.471Z,94.30
2017-12-17T05:50:13.495Z,94.30
2017-12-17T05:52:42.110Z,94.40
2017-12-17T05:55:10.581Z,94.00
2017-12-17T05:57:42.695Z,94.10
2017-12-17T06:00:14.812Z,94.00
2017-12-17T06:02:55.286Z,93.90
2017-12-17T06:05:33.667Z,94.00
2017-12-17T06:31:24.204Z,94.10
2017-12-17T06:33:52.924Z,94.20
2017-12-17T06:36:28.705Z,94.10
2017-12-17T06:42:09.065Z,93.90
2017-12-17T06:44:37.717Z,93.80
2017-12-17T06:49:46.673Z,93.80
2017-12-17T06:52:15.966Z,93.90
2017-12-17T06:54:43.829Z,94.20
2017-12-17T06:57:11.928Z,93.90
2017-12-17T07:02:22.378Z,93.70
2017-12-17T07:04:50.126Z,93.70
2017-12-17T07:07:17.778Z,93.80
2017-12-17T07:09:46.218Z,94.50
2017-12-17T07:12:13.882Z,94.40
2017-12-17T07:14:42.279Z,93.90
2017-12-17T07:17:10.059Z,93.90
2017-12-17T07:19:37.836Z,94.20
2017-12-17T07:22:05.984Z,93.80
2017-12-17T07:24:33.583Z,93.80
2017-12-17T07:27:01.226Z,93.80
2017-12-17T07:29:28.950Z,94.30
2017-12-17T07:31:56.607Z,94.20
2017-12-17T07:34:24.250Z,94.20
2017-12-17T07:36:52.870Z,94.70
2017-12-17T07:39:20.738Z,94.40
2017-12-17T07:41:49.451Z,94.50
2017-12-17T07:44:18.117Z,94.60
2017-12-17T07:46:47.139Z,94.60
2017-12-17T07:49:17.601Z,94.70
2017-12-17T07:51:45.363Z,94.70
2017-12-17T07:54:13.128Z,94.70
2017-12-17T07:56:41.668Z,95.00
2017-12-17T07:59:09.716Z,94.90
2017-12-17T08:01:39.523Z,95.00
2017-12-17T08:04:09.363Z,95.30
2017-12-17T08:06:37.239Z,95.30
2017-12-17T08:09:05.236Z,95.50
2017-12-17T08:11:35.909Z,95.50
2017-12-17T08:14:07.419Z,95.60
2017-12-17T08:16:40.615Z,95.60
2017-12-17T08:19:09.852Z,95.50
2017-12-17T08:21:38.690Z,95.30
2017-12-17T08:24:06.540Z,95.30
2017-12-17T08:26:34.546Z,95.00
2017-12-17T08:29:03.669Z,95.00
2017-12-17T08:31:31.853Z,94.90
2017-12-17T08:33:59.593Z,94.50
2017-12-17T08:36:44.274Z,94.60
2017-12-17T08:39:15.138Z,94.70
2017-12-17T08:41:42.804Z,94.50
2017-12-17T08:44:10.534Z,94.50
2017-12-17T08:46:38.256Z,94.50
2017-12-17T08:49:06.509Z,94.60
2017-12-17T08:51:34.169Z,94.60
2017-12-17T08:54:02.052Z,94.70
2017-12-17T08:56:29.767Z,94.80
2017-12-17T08:58:57.531Z,94.40
2017-12-17T09:01:25.225Z,94.40
2017-12-17T09:03:53.133Z,94.40
2017-12-17T09:06:22.642Z,94.30
2017-12-17T09:08:53.063Z,94.00
2017-12-17T09:11:22.759Z,93.90
2017-12-17T09:13:50.428Z,94.00
2017-12-17T09:16:18.098Z,94.30
2017-12-17T09:18:46.392Z,93.90
2017-12-17T09:21:14.128Z,94.00
2017-12-17T09:23:42.525Z,94.10
2017-12-17T09:26:15.829Z,94.00
2017-12-17T09:28:43.647Z,94.30
2017-12-17T09:31:12.199Z,94.40
2017-12-17T09:33:40.001Z,94.50
2017-12-17T09:36:07.658Z,94.50
2017-12-17T09:38:39.278Z,94.60
2017-12-17T09:41:07.087Z,94.50
2017-12-17T09:43:34.845Z,94.40
2017-12-17T09:46:03.044Z,94.50
2017-12-17T09:48:32.734Z,94.50
2017-12-17T09:51:00.533Z,94.60
2017-12-17T09:53:28.276Z,94.30
2017-12-17T09:55:56.086Z,94.20
2017-12-17T09:58:24.974Z,94.20
2017-12-17T10:00:52.732Z,94.30
2017-12-17T10:03:20.544Z,94.30
2017-12-17T10:05:48.411Z,94.30
2017-12-17T10:08:16.312Z,94.30
2017-12-17T10:10:44.507Z,94.20
2017-12-17T10:13:12.243Z,94.20
2017-12-17T10:15:40.035Z,94.20
2017-12-17T10:18:07.990Z,94.20
2017-12-17T10:20:36.401Z,94.30
2017-12-17T10:23:04.293Z,94.20
2017-12-17T10:25:32.013Z,94.10
2017-12-17T10:27:59.634Z,94.20
2017-12-17T10:30:27.384Z,94.20
2017-12-17T10:32:55.899Z,94.20
2017-12-17T10:35:23.665Z,94.40
2017-12-17T10:37:51.335Z,94.50
2017-12-17T10:40:19.013Z,94.50
2017-12-17T10:42:46.872Z,94.40
2017-12-17T10:45:14.842Z,94.60
2017-12-17T10:47:42.602Z,94.50
2017-12-17T10:50:10.527Z,94.50
2017-12-17T10:52:38.163Z,94.30
2017-12-17T10:55:05.963Z,94.40
2017-12-17T10:57:33.613Z,94.20
2017-12-17T11:00:02.057Z,94.20
2017-12-17T11:02:29.673Z,94.10
2017-12-17T11:04:57.416Z,94.00
2017-12-17T11:07:25.100Z,94.10
2017-12-17T11:09:52.790Z,94.10
2017-12-17T11:12:20.655Z,94.00
2017-12-17T11:14:48.281Z,93.80
2017-12-17T11:17:17.651Z,94.00
2017-12-17T11:19:45.433Z,93.90
2017-12-17T11:22:13.844Z,94.10
2017-12-17T11:24:42.173Z,93.90
2017-12-17T11:27:10.103Z,93.90
2017-12-17T11:29:38.707Z,93.80
2017-12-17T11:32:07.335Z,93.90
2017-12-17T11:34:35.363Z,93.90
2017-12-17T11:37:03.494Z,93.60
2017-12-17T11:39:32.207Z,93.80
2017-12-17T11:42:00.859Z,93.60
2017-12-17T11:44:28.645Z,93.50
2017-12-17T11:46:57.010Z,93.80
2017-12-17T11:49:25.048Z,93.60
2017-12-17T11:51:52.806Z,93.50
2017-12-17T11:54:20.504Z,93.60
2017-12-17T11:56:48.802Z,93.50
2017-12-17T11:59:16.926Z,93.70
2017-12-17T12:01:44.995Z,93.60
2017-12-17T12:04:12.886Z,93.50
2017-12-17T12:06:41.754Z,93.30
2017-12-17T12:09:10.246Z,93.20
2017-12-17T12:11:38.114Z,93.10
2017-12-17T12:14:06.857Z,93.20
2017-12-17T12:16:39.226Z,93.10
2017-12-17T12:19:08.117Z,93.20
2017-12-17T12:21:38.797Z,93.30
2017-12-17T12:24:06.610Z,93.20
2017-12-17T12:27:49.498Z,93.10
2017-12-17T12:30:16.968Z,93.10
2017-12-17T12:32:45.239Z,93.20
2017-12-17T12:35:12.756Z,93.20
2017-12-17T12:37:40.677Z,93.10
2017-12-17T12:40:08.228Z,92.90
2017-12-17T12:42:35.772Z,92.90
2017-12-17T12:45:03.278Z,93.10
2017-12-17T12:47:30.915Z,93.10
2017-12-17T12:49:58.569Z,93.00
2017-12-17T12:52:26.142Z,93.10
2017-12-17T12:54:53.670Z,93.30
2017-12-17T12:57:21.143Z,93.30
2017-12-17T12:59:48.712Z,93.10
2017-12-17T13:02:16.322Z,93.00
2017-12-17T13:04:43.807Z,93.20
2017-12-17T13:07:11.290Z,93.10
2017-12-17T13:09:38.822Z,93.00
2017-12-17T13:12:06.347Z,92.90
2017-12-17T13:14:33.946Z,92.90
2017-12-17T13:17:01.414Z,93.10
2017-12-17T13:19:28.928Z,93.20
2017-12-17T13:21:56.390Z,93.20
2017-12-17T13:24:23.899Z,93.30
2017-12-17T13:26:51.424Z,93.30
2017-12-17T13:29:18.989Z,93.00
2017-12-17T13:31:46.523Z,92.80
2017-12-17T13:34:14.236Z,92.90
2017-12-17T13:36:42.572Z,93.00
2017-12-17T13:39:12.965Z,93.00
2017-12-17T13:41:40.565Z,93.40
2017-12-17T13:44:08.097Z,93.00
2017-12-17T13:46:36.472Z,93.00
2017-12-17T13:49:04.210Z,93.00
2017-12-17T13:51:32.641Z,92.70
2017-12-17T13:54:03.562Z,92.70
2017-12-17T13:56:31.170Z,92.50
2017-12-17T13:58:59.264Z,92.50
2017-12-17T14:01:27.618Z,92.80
2017-12-17T14:03:55.881Z,92.90
2017-12-17T14:06:23.351Z,92.90
2017-12-17T14:08:50.816Z,92.90
2017-12-17T14:11:20.342Z,92.90
2017-12-17T14:13:48.900Z,92.90
2017-12-17T14:16:17.167Z,93.20
2017-12-17T14:18:45.491Z,93.60
2017-12-17T14:21:13.828Z,93.40
2017-12-17T14:23:41.325Z,93.30
2017-12-17T14:26:08.896Z,93.30
2017-12-17T14:28:36.418Z,93.40
2017-12-17T14:31:03.945Z,93.50
2017-12-17T14:33:31.417Z,93.60
2017-12-17T14:35:58.895Z,93.60
2017-12-17T14:38:27.119Z,93.50
2017-12-17T14:40:54.714Z,93.70
2017-12-17T14:43:22.970Z,93.90
2017-12-17T14:45:51.295Z,93.90
2017-12-17T14:48:18.868Z,93.90
2017-12-17T14:50:46.392Z,94.20
2017-12-17T14:53:13.924Z,93.90
2017-12-17T14:55:41.557Z,94.00
2017-12-17T14:58:09.135Z,94.10
2017-12-17T15:00:36.771Z,94.10
2017-12-17T15:03:04.285Z,94.10
2017-12-17T15:05:31.980Z,94.20
2017-12-17T15:08:00.290Z,94.30
2017-12-17T15:10:28.739Z,94.20
2017-12-17T15:12:57.059Z,94.50
2017-12-17T15:15:25.470Z,94.70
2017-12-17T15:17:53.085Z,94.60
2017-12-17T15:20:21.503Z,94.80
2017-12-17T15:22:49.080Z,94.80
2017-12-17T15:25:16.652Z,94.90
2017-12-17T15:27:44.296Z,95.00
2017-12-17T15:30:12.126Z,95.10
2017-12-17T15:32:39.756Z,95.00
2017-12-17T15:35:07.328Z,95.00
2017-12-17T15:37:35.616Z,95.10
2017-12-17T15:40:03.153Z,95.10
2017-12-17T15:42:30.609Z,95.20
2017-12-17T15:44:58.092Z,95.40
2017-12-17T15:47:26.455Z,95.60
2017-12-17T15:49:54.034Z,95.50
2017-12-17T15:52:24.513Z,95.70
2017-12-17T15:54:52.920Z,95.80
2017-12-17T15:57:20.427Z,95.70
2017-12-17T15:59:49.239Z,95.80
2017-12-17T16:02:16.809Z,95.80
2017-12-17T16:04:44.403Z,95.70
2017-12-17T16:07:12.717Z,95.80
2017-12-17T16:09:40.246Z,95.80
2017-12-17T16:12:08.500Z,96.00
2017-12-17T16:14:36.003Z,96.00
2017-12-17T16:17:03.788Z,96.10
2017-12-17T16:19:32.091Z,96.10
2017-12-17T16:21:59.582Z,96.10
2017-12-17T16:24:27.863Z,96.00
2017-12-17T16:26:56.176Z,96.00
2017-12-17T16:29:23.637Z,96.00
2017-12-17T16:31:51.264Z,96.00
2017-12-17T16:34:18.847Z,95.90
2017-12-17T16:36:46.344Z,95.90
2017-12-17T16:39:13.805Z,95.90
2017-12-17T16:41:41.258Z,95.90
2017-12-17T16:44:08.717Z,95.90
2017-12-17T16:46:36.173Z,95.80
2017-12-17T16:49:03.630Z,95.90
2017-12-17T16:51:31.106Z,95.90
2017-12-17T16:53:58.710Z,95.80
2017-12-17T16:56:26.176Z,95.90
2017-12-17T16:58:53.640Z,96.00
2017-12-17T17:01:21.117Z,96.20
2017-12-17T17:03:48.587Z,96.20
2017-12-17T17:06:16.849Z,96.50
2017-12-17T17:08:44.332Z,96.40
2017-12-17T17:11:11.895Z,96.40
2017-12-17T17:13:39.629Z,96.50
2017-12-17T17:16:07.085Z,96.50
2017-12-17T17:18:34.542Z,96.50
2017-12-17T17:21:02.065Z,96.40
2017-12-17T17:23:29.521Z,96.40
2017-12-17T17:25:57.023Z,96.40
2017-12-17T17:28:24.486Z,96.40
2017-12-17T17:30:52.674Z,96.30
2017-12-17T17:33:20.134Z,96.30
2017-12-17T17:35:47.623Z,96.30
2017-12-17T17:38:15.137Z,96.20
2017-12-17T17:40:43.400Z,96.30
2017-12-17T17:43:10.862Z,96.20
2017-12-17T17:45:38.375Z,96.20
2017-12-17T17:48:05.876Z,96.20
2017-12-17T17:50:33.354Z,96.20
2017-12-17T17:53:01.582Z,96.20
2017-12-17T17:55:29.351Z,96.10
2017-12-17T17:57:57.105Z,96.10
2017-12-17T18:00:24.631Z,96.10
2017-12-17T18:02:52.097Z,96.20
2017-12-17T18:05:19.629Z,96.20
2017-12-17T18:07:47.149Z,96.20
2017-12-17T18:10:14.705Z,96.20
2017-12-17T18:12:42.199Z,96.20
2017-12-17T18:15:09.728Z,96.20
2017-12-17T18:17:37.205Z,96.20
2017-12-17T18:20:04.683Z,96.20
2017-12-17T18:22:32.182Z,96.20
2017-12-17T18:24:59.698Z,96.20
2017-12-17T18:27:27.198Z,96.20
2017-12-17T18:29:54.704Z,96.30
2017-12-17T18:32:22.223Z,96.30
2017-12-17T18:34:49.749Z,96.30
2017-12-17T18:37:25.023Z,96.60
2017-12-17T18:39:53.196Z,96.70
2017-12-17T18:42:20.886Z,96.90
2017-12-17T18:44:48.426Z,96.80
2017-12-17T18:47:16.245Z,96.80
2017-12-17T18:49:45.328Z,96.80
2017-12-17T18:52:14.411Z,97.10
2017-12-17T18:54:42.091Z,97.00
2017-12-17T18:57:10.924Z,96.90
2017-12-17T18:59:39.288Z,96.70
2017-12-17T19:02:08.614Z,96.70
2017-12-17T19:04:42.311Z,96.70
2017-12-17T19:07:09.982Z,96.50
2017-12-17T19:09:37.511Z,96.50
2017-12-17T19:12:06.775Z,96.50
2017-12-17T19:14:35.549Z,96.50
2017-12-17T19:17:05.786Z,96.50
2017-12-17T19:19:33.718Z,96.50
2017-12-17T19:22:01.573Z,96.50
2017-12-17T19:24:29.151Z,96.50
2017-12-17T19:26:58.745Z,96.50
2017-12-17T19:29:28.262Z,96.40
2017-12-17T19:31:56.645Z,96.60
2017-12-17T19:34:24.134Z,96.50
2017-12-17T19:36:52.202Z,96.50
2017-12-17T19:39:19.653Z,96.50
2017-12-17T19:41:47.122Z,96.60
2017-12-17T19:44:14.595Z,96.70
2017-12-17T19:46:42.073Z,96.70
2017-12-17T19:49:09.669Z,96.70
2017-12-17T19:51:37.139Z,96.80
2017-12-17T19:54:05.633Z,96.90
2017-12-17T19:56:33.131Z,97.00
2017-12-17T19:59:00.626Z,96.90
2017-12-17T20:01:28.102Z,96.80
2017-12-17T20:03:55.562Z,96.80
2017-12-17T20:06:23.026Z,96.80
2017-12-17T20:08:53.269Z,96.80
2017-12-17T20:11:22.549Z,97.10
2017-12-17T20:13:55.016Z,96.80
2017-12-17T20:16:38.764Z,96.80
2017-12-17T20:19:07.899Z,96.80
2017-12-17T20:21:39.597Z,96.80
2017-12-17T20:24:07.484Z,96.80
2017-12-17T20:26:35.324Z,96.70
2017-12-17T20:29:03.265Z,96.80
2017-12-17T20:31:30.954Z,96.80
2017-12-17T20:33:58.581Z,96.80
2017-12-17T20:36:26.307Z,96.90
2017-12-17T20:38:55.083Z,96.90
2017-12-17T20:41:22.687Z,96.90
2017-12-17T20:43:50.236Z,96.90
2017-12-17T20:46:17.867Z,97.00
2017-12-17T20:48:45.751Z,97.10
2017-12-17T20:51:13.540Z,97.20
2017-12-17T20:53:41.959Z,97.10
2017-12-17T20:56:09.602Z,97.10
2017-12-17T20:58:57.528Z,97.10
2017-12-17T21:01:26.360Z,96.90
2017-12-17T21:03:54.314Z,97.00
2017-12-17T21:06:23.381Z,97.00
2017-12-17T21:08:53.332Z,97.00
2017-12-17T21:11:21.086Z,96.80
2017-12-17T21:13:56.566Z,96.60
2017-12-17T21:16:24.567Z,96.50
2017-12-17T21:18:53.292Z,96.50
2017-12-17T21:21:26.453Z,96.50
2017-12-17T21:24:06.687Z,96.40
2017-12-17T21:26:36.657Z,96.30
2017-12-17T21:29:08.444Z,96.30
2017-12-17T21:31:37.455Z,96.10
2017-12-17T21:34:05.208Z,96.20
2017-12-17T21:36:35.128Z,96.20
2017-12-17T21:39:02.886Z,96.10
2017-12-17T21:41:38.476Z,96.10
2017-12-17T21:44:06.265Z,96.10
2017-12-17T21:46:50.287Z,96.10
2017-12-17T21:49:22.280Z,96.20
2017-12-17T21:52:01.184Z,96.20
2017-12-17T21:54:31.420Z,96.30
2017-12-17T21:56:59.200Z,96.30
2017-12-17T21:59:32.558Z,96.40
2017-12-17T22:04:56.407Z,96.40
2017-12-17T22:07:24.027Z,96.50
2017-12-17T22:12:44.364Z,96.50
2017-12-17T22:15:13.821Z,96.50
2017-12-17T22:17:44.130Z,96.50
2017-12-17T22:20:18.297Z,96.60
2017-12-17T22:25:33.227Z,96.60
2017-12-17T22:28:04.873Z,96.60
2017-12-17T22:30:32.702Z,96.60
2017-12-17T22:33:02.515Z,96.70
2017-12-17T22:35:37.547Z,96.60
2017-12-17T22:38:07.019Z,96.70
2017-12-17T22:40:37.082Z,96.50
2017-12-17T22:43:08.135Z,96.50
2017-12-17T22:45:36.945Z,96.40
2017-12-17T22:48:14.228Z,96.40
2017-12-17T22:50:42.927Z,96.40
2017-12-17T22:58:45.310Z,96.50
2017-12-17T23:04:06.276Z,96.40
2017-12-17T23:06:54.504Z,96.50
2017-12-17T23:09:23.265Z,96.40
2017-12-17T23:12:00.452Z,96.40
2017-12-17T23:14:33.795Z,96.40
2017-12-17T23:17:06.200Z,96.40
2017-12-17T23:19:38.231Z,96.60
2017-12-17T23:22:11.240Z,96.70
2017-12-17T23:24:46.431Z,96.80
2017-12-17T23:27:22.212Z,96.80
2017-12-17T23:29:50.252Z,96.90
2017-12-17T23:32:19.995Z,96.90
2017-12-17T23:34:55.907Z,97.00
2017-12-17T23:40:15.123Z,96.80
2017-12-17T23:42:44.939Z,96.70
2017-12-17T23:45:15.712Z,96.70
2017-12-17T23:48:07.021Z,96.70
2017-12-17T23:50:54.985Z,96.70
2017-12-17T23:53:39.539Z,96.60
